Venice, Louisiana
Current Conditions -  °F | °C
As of 3:51 AM on Saturday 25 Oct 2014 (Local Time) from KBVE Reporting Station
Clear Clear  
Wind Chill: 68°   Ceiling: Unl
Heat Index: 68°   Visibility: 10mi
Dew Point: 57°   Wind: 8mph
Humidity: 68%   Direction: 10°N
Pressure: 30.07"   Gusts: NA
Location:  29.28°N, 89.36°W
Report Text: KBVE 250851Z AUTO 01007KT 10SM CLR 20/14 A3007 RMK AO2 SLP183 T02000139 56002
Loading
Personal Weather Stations






























Interactive Weather Map
Tropical Storm Tracking
New forecast layout! Learn more

10-Day Weather Forecast

Advertisements
Track Severe Weather on mobile